Auburn, Washington
Current Conditions -  °F | °C
As of 9:53 PM on Thursday 18 Dec 2014 (Local Time) from KSEA Reporting Station
Light Rain Light Rain  
Wind Chill: 44°   Ceiling: 4600
Heat Index: 47°   Visibility: 9mi
Dew Point: 42°   Wind: 6mph
Humidity: 83%   Direction: 130°SE
Pressure: 29.73"   Gusts: NA
Location:  47.31°N, 122.23°W
Report Text: KSEA 190553Z 13005KT 9SM -RA OVC046 08/06 A2973 RMK AO2 SLP076 P0004 60023 T00830056 10094 20078 55002
Loading
Personal Weather Stations






























Interactive Weather Map New forecast layout! Learn more

10-Day Weather Forecast

Advertisements
Track Severe Weather on mobile